createdAt,value
2022-08-05T00:02:07.886Z,23.31
2022-08-05T00:08:54.579Z,23.17
2022-08-05T00:15:57.694Z,23.05
2022-08-05T00:22:41.483Z,23.03
2022-08-05T00:44:04.183Z,22.60
2022-08-05T00:57:31.829Z,22.35
2022-08-05T01:04:26.760Z,22.39
2022-08-05T01:18:48.172Z,22.33
2022-08-05T07:21:25.595Z,26.50
2022-08-05T08:08:06.804Z,27.60
2022-08-05T08:14:32.899Z,27.77
2022-08-05T10:09:02.025Z,30.77
2022-08-05T10:15:54.592Z,31.00
2022-08-05T10:22:40.525Z,31.12
2022-08-05T10:30:06.868Z,31.24
2022-08-05T10:36:35.090Z,31.45
2022-08-05T10:43:17.565Z,31.53
2022-08-05T10:50:32.473Z,31.73
2022-08-05T10:57:19.111Z,31.90
2022-08-05T11:11:57.527Z,32.13
2022-08-05T11:18:06.875Z,32.24
2022-08-05T11:24:30.383Z,32.22
2022-08-05T11:54:40.709Z,32.91
2022-08-05T12:01:26.426Z,32.98
2022-08-05T12:08:11.853Z,32.91
2022-08-05T12:15:05.871Z,32.92
2022-08-05T12:22:04.039Z,33.02
2022-08-05T12:34:23.794Z,33.34
2022-08-05T12:53:43.408Z,33.87
2022-08-05T13:02:00.626Z,34.06
2022-08-05T13:06:50.754Z,34.32
2022-08-05T13:21:21.833Z,35.04
2022-08-05T13:28:08.370Z,35.06
2022-08-05T13:54:15.283Z,35.93
2022-08-05T14:01:03.028Z,35.88
2022-08-05T14:07:25.559Z,35.76
2022-08-05T14:14:14.904Z,35.97
2022-08-05T14:54:28.681Z,36.77
2022-08-05T14:59:51.479Z,36.90
2022-08-05T15:06:16.000Z,37.10
2022-08-05T15:12:59.701Z,37.34
2022-08-05T15:18:58.163Z,37.56
2022-08-05T15:24:49.355Z,37.79
2022-08-05T15:31:11.931Z,37.93
2022-08-05T15:37:19.390Z,38.26
2022-08-05T15:44:05.300Z,38.51
2022-08-05T15:50:31.502Z,38.52
2022-08-05T15:56:15.154Z,38.62
2022-08-05T16:03:05.231Z,38.63
2022-08-05T16:09:46.906Z,38.75
2022-08-05T16:16:55.980Z,38.84
2022-08-05T16:23:53.909Z,39.20
2022-08-05T16:38:03.627Z,39.76
2022-08-05T16:44:54.303Z,40.17
2022-08-05T16:51:51.070Z,40.67
2022-08-05T16:59:10.365Z,40.90
2022-08-05T17:05:54.236Z,41.21
2022-08-05T17:12:51.699Z,41.74
2022-08-05T17:19:09.690Z,42.30
2022-08-05T17:25:40.185Z,42.77
2022-08-05T17:32:17.006Z,43.20
2022-08-05T17:38:23.059Z,43.28
2022-08-05T17:45:10.108Z,42.96
2022-08-05T17:58:13.059Z,40.27
2022-08-05T18:04:07.807Z,38.93
2022-08-05T18:34:58.711Z,33.10
2022-08-05T19:06:11.443Z,30.29
2022-08-05T19:13:12.283Z,29.90
2022-08-05T19:20:11.832Z,29.56
2022-08-05T19:27:12.087Z,29.21
2022-08-05T19:34:10.617Z,28.96
2022-08-05T19:41:06.988Z,28.80
2022-08-05T20:00:28.146Z,28.44
2022-08-05T20:03:38.041Z,28.67
2022-08-05T20:07:59.435Z,28.11
2022-08-05T20:13:54.715Z,28.04
2022-08-05T20:26:40.000Z,27.91
2022-08-05T20:33:27.783Z,27.86
2022-08-05T20:40:34.664Z,27.83
2022-08-05T20:47:32.198Z,27.81
2022-08-05T21:00:21.094Z,27.74
2022-08-05T21:49:58.745Z,27.16
2022-08-05T22:02:08.981Z,26.92
2022-08-05T22:07:40.392Z,26.83
2022-08-05T22:14:34.515Z,26.73
2022-08-05T22:20:03.266Z,26.72
2022-08-05T22:26:11.398Z,26.75
2022-08-05T22:31:44.477Z,26.76
2022-08-05T22:58:43.726Z,26.74
2022-08-05T23:18:03.609Z,26.78
2022-08-05T23:23:53.805Z,26.78
2022-08-05T23:29:17.796Z,26.77
2022-08-05T23:34:41.193Z,26.74
2022-08-05T23:40:07.825Z,26.73
2022-08-05T23:45:31.286Z,26.73
2022-08-05T23:50:55.172Z,26.74
2022-08-05T23:56:20.021Z,26.73
